createdAt,value
2023-04-16T00:00:51.158Z,99227.41
2023-04-16T00:03:18.542Z,99230.97
2023-04-16T00:05:45.886Z,99231.16
2023-04-16T00:08:13.585Z,99232.41
2023-04-16T00:10:55.891Z,99228.38
2023-04-16T00:13:23.177Z,99226.38
2023-04-16T00:15:50.753Z,99231.84
2023-04-16T00:18:18.043Z,99229.09
2023-04-16T00:20:45.460Z,99224.41
2023-04-16T00:23:13.281Z,99229.22
2023-04-16T00:25:40.737Z,99229.50
2023-04-16T00:28:09.048Z,99239.66
2023-04-16T00:30:39.037Z,99242.84
2023-04-16T00:33:13.568Z,99245.16
2023-04-16T00:35:47.452Z,99247.50
2023-04-16T00:38:21.944Z,99236.22
2023-04-16T00:40:49.233Z,99243.28
2023-04-16T00:43:37.021Z,99237.91
2023-04-16T00:46:07.477Z,99241.56
2023-04-16T00:48:36.801Z,99244.88
2023-04-16T00:51:09.059Z,99241.22
2023-04-16T00:53:36.717Z,99244.03
2023-04-16T00:56:07.034Z,99246.19
2023-04-16T00:58:35.917Z,99252.06
2023-04-16T01:01:09.259Z,99253.91
2023-04-16T01:03:47.629Z,99251.69
2023-04-16T01:06:16.999Z,99250.44
2023-04-16T01:08:46.452Z,99267.38
2023-04-16T01:11:15.335Z,99259.69
2023-04-16T01:13:42.540Z,99261.63
2023-04-16T01:16:11.647Z,99260.88
2023-04-16T01:18:39.907Z,99253.50
2023-04-16T01:21:08.688Z,99247.91
2023-04-16T01:23:38.034Z,99250.56
2023-04-16T01:26:05.632Z,99255.66
2023-04-16T01:28:33.235Z,99252.38
2023-04-16T01:31:02.715Z,99242.44
2023-04-16T01:33:31.094Z,99248.25
2023-04-16T01:35:58.811Z,99249.19
2023-04-16T01:38:26.004Z,99252.75
2023-04-16T01:41:00.891Z,99255.41
2023-04-16T01:43:29.104Z,99266.22
2023-04-16T01:46:14.095Z,99263.38
2023-04-16T01:48:41.434Z,99263.69
2023-04-16T01:51:08.849Z,99278.09
2023-04-16T01:53:37.224Z,99285.78
2023-04-16T01:56:05.011Z,99268.84
2023-04-16T01:58:34.220Z,99281.19
2023-04-16T02:01:01.771Z,99282.00
2023-04-16T02:03:28.939Z,99281.75
2023-04-16T02:05:56.231Z,99280.25
2023-04-16T02:08:24.657Z,99290.81
2023-04-16T02:10:52.116Z,99282.81
2023-04-16T02:13:19.507Z,99293.28
2023-04-16T02:15:48.766Z,99289.88
2023-04-16T02:18:17.345Z,99291.41
2023-04-16T02:20:52.674Z,99287.81
2023-04-16T02:23:20.069Z,99290.53
2023-04-16T02:25:47.909Z,99297.50
2023-04-16T02:28:17.165Z,99305.56
2023-04-16T02:30:44.942Z,99303.81
2023-04-16T02:33:13.051Z,99309.72
2023-04-16T02:35:40.786Z,99312.47
2023-04-16T02:38:10.721Z,99310.66
2023-04-16T02:40:40.013Z,99313.56
2023-04-16T02:43:07.564Z,99308.13
2023-04-16T02:45:35.040Z,99311.66
2023-04-16T02:48:02.425Z,99312.31
2023-04-16T02:50:29.848Z,99312.78
2023-04-16T02:52:57.276Z,99310.00
2023-04-16T02:55:24.738Z,99312.88
2023-04-16T02:57:53.332Z,99311.63
2023-04-16T03:00:21.803Z,99319.50
2023-04-16T03:02:49.193Z,99314.31
2023-04-16T03:05:22.733Z,99309.84
2023-04-16T03:07:50.940Z,99309.16
2023-04-16T03:10:19.228Z,99304.84
2023-04-16T03:12:46.683Z,99311.94
2023-04-16T03:15:14.187Z,99306.44
2023-04-16T03:17:41.806Z,99317.31
2023-04-16T03:20:10.575Z,99315.16
2023-04-16T03:22:39.699Z,99314.50
2023-04-16T03:25:08.242Z,99318.16
2023-04-16T03:27:36.497Z,99317.31
2023-04-16T03:30:05.400Z,99328.78
2023-04-16T03:32:38.764Z,99327.50
2023-04-16T03:35:07.786Z,99328.22
2023-04-16T03:37:41.264Z,99331.81
2023-04-16T03:40:08.939Z,99333.31
2023-04-16T03:42:38.130Z,99338.63
2023-04-16T03:45:11.479Z,99341.47
2023-04-16T03:47:38.744Z,99350.41
2023-04-16T03:50:11.925Z,99352.19
2023-04-16T03:52:39.411Z,99352.28
2023-04-16T03:55:07.195Z,99348.72
2023-04-16T03:57:34.275Z,99352.53
2023-04-16T04:00:01.823Z,99357.72
2023-04-16T04:02:29.262Z,99364.78
2023-04-16T04:04:56.680Z,99361.44
2023-04-16T04:07:24.330Z,99370.03
2023-04-16T04:09:51.450Z,99371.75
2023-04-16T04:12:18.929Z,99374.25
2023-04-16T04:14:46.407Z,99378.75
2023-04-16T04:17:13.832Z,99378.63
2023-04-16T04:19:47.137Z,99378.75
2023-04-16T04:22:24.434Z,99386.91
2023-04-16T04:24:52.530Z,99386.91
2023-04-16T04:27:20.058Z,99388.66
2023-04-16T04:29:47.688Z,99383.16
2023-04-16T04:32:16.013Z,99387.50
2023-04-16T04:34:43.480Z,99385.81
2023-04-16T04:37:11.009Z,99389.47
2023-04-16T04:39:38.427Z,99393.56
2023-04-16T04:42:06.320Z,99397.88
2023-04-16T04:44:33.833Z,99401.19
2023-04-16T04:47:00.807Z,99407.22
2023-04-16T04:49:28.396Z,99407.81
2023-04-16T04:51:55.790Z,99406.19
2023-04-16T04:54:24.385Z,99413.34
2023-04-16T04:56:52.780Z,99414.16
2023-04-16T04:59:21.685Z,99419.59
2023-04-16T05:01:49.304Z,99424.09
2023-04-16T05:04:16.510Z,99431.25
2023-04-16T05:06:46.622Z,99432.78
2023-04-16T05:09:13.718Z,99433.88
2023-04-16T05:11:50.753Z,99442.53
2023-04-16T05:14:17.893Z,99444.28
2023-04-16T05:16:45.380Z,99448.66
2023-04-16T05:19:13.812Z,99446.78
2023-04-16T05:21:41.355Z,99446.38
2023-04-16T05:24:08.759Z,99449.75
2023-04-16T05:26:37.351Z,99459.38
2023-04-16T05:29:04.930Z,99461.16
2023-04-16T05:31:33.221Z,99463.38
2023-04-16T05:34:00.633Z,99461.66
2023-04-16T05:36:28.390Z,99460.63
2023-04-16T05:38:55.490Z,99459.28
2023-04-16T05:41:23.186Z,99473.16
2023-04-16T05:43:50.517Z,99469.72
2023-04-16T05:46:18.040Z,99473.47
2023-04-16T05:48:45.464Z,99476.81
2023-04-16T05:51:12.847Z,99492.41
2023-04-16T05:53:41.287Z,99491.50
2023-04-16T05:56:10.935Z,99498.47
2023-04-16T05:58:39.493Z,99499.22
2023-04-16T06:01:08.886Z,99494.63
2023-04-16T06:03:36.064Z,99497.41
2023-04-16T06:06:03.376Z,99502.09
2023-04-16T06:08:32.777Z,99504.81
2023-04-16T06:11:00.324Z,99510.25
2023-04-16T06:13:29.742Z,99510.28
2023-04-16T06:15:58.271Z,99520.84
2023-04-16T06:18:26.812Z,99514.53
2023-04-16T06:20:56.571Z,99526.50
2023-04-16T06:23:25.269Z,99533.88
2023-04-16T06:25:59.092Z,99530.00
2023-04-16T06:28:27.251Z,99531.34
2023-04-16T06:30:54.743Z,99520.03
2023-04-16T06:33:22.240Z,99525.16
2023-04-16T06:35:50.095Z,99531.09
2023-04-16T06:38:17.634Z,99531.63
2023-04-16T06:40:59.627Z,99526.84
2023-04-16T06:43:27.437Z,99524.72
2023-04-16T06:45:55.892Z,99531.94
2023-04-16T06:48:23.269Z,99528.16
2023-04-16T06:50:51.206Z,99539.34
2023-04-16T06:53:18.848Z,99534.50
2023-04-16T06:55:46.237Z,99535.91
2023-04-16T06:58:14.662Z,99532.63
2023-04-16T07:00:42.109Z,99543.28
2023-04-16T07:03:09.808Z,99534.81
2023-04-16T07:05:37.584Z,99539.94
2023-04-16T07:08:05.075Z,99544.59
2023-04-16T07:10:32.454Z,99547.16
2023-04-16T07:13:03.515Z,99546.63
2023-04-16T07:15:30.985Z,99547.16
2023-04-16T07:17:58.628Z,99544.25
2023-04-16T07:20:27.128Z,99554.88
2023-04-16T07:22:54.710Z,99551.72
2023-04-16T07:25:22.179Z,99555.75
2023-04-16T07:27:49.703Z,99549.25
2023-04-16T07:30:17.296Z,99550.56
2023-04-16T07:32:44.652Z,99556.50
2023-04-16T07:35:12.170Z,99557.69
2023-04-16T07:37:39.550Z,99563.78
2023-04-16T07:40:09.268Z,99564.91
2023-04-16T07:42:38.749Z,99563.66
2023-04-16T07:45:12.114Z,99574.88
2023-04-16T07:47:39.686Z,99571.81
2023-04-16T07:50:07.633Z,99577.38
2023-04-16T07:52:35.710Z,99584.84
2023-04-16T07:55:03.180Z,99589.84
2023-04-16T07:57:32.527Z,99583.97
2023-04-16T08:00:02.567Z,99584.00
2023-04-16T08:02:30.044Z,99587.72
2023-04-16T08:04:57.345Z,99591.50
2023-04-16T08:07:24.892Z,99592.13
2023-04-16T08:09:53.600Z,99591.38
2023-04-16T08:12:21.509Z,99594.84
2023-04-16T08:14:49.012Z,99597.66
2023-04-16T08:17:16.435Z,99592.94
2023-04-16T08:19:45.401Z,99594.13
2023-04-16T08:22:15.162Z,99588.13
2023-04-16T08:24:42.452Z,99598.13
2023-04-16T08:27:19.342Z,99595.00
2023-04-16T08:29:48.422Z,99595.19
2023-04-16T08:32:16.933Z,99597.00
2023-04-16T08:34:44.473Z,99606.22
2023-04-16T08:37:17.986Z,99604.88
2023-04-16T08:39:45.634Z,99615.56
2023-04-16T08:42:23.980Z,99616.25
2023-04-16T08:44:58.594Z,99616.72
2023-04-16T08:47:27.459Z,99623.94
2023-04-16T08:49:59.216Z,99620.97
2023-04-16T08:52:31.613Z,99627.41
2023-04-16T08:55:07.351Z,99626.88
2023-04-16T08:57:42.675Z,99636.22
2023-04-16T09:00:11.535Z,99629.19
2023-04-16T09:02:39.875Z,99638.88
2023-04-16T09:05:08.540Z,99634.53
2023-04-16T09:07:36.929Z,99630.53
2023-04-16T09:10:04.659Z,99639.69
2023-04-16T09:12:33.544Z,99639.94
2023-04-16T09:15:03.356Z,99633.56
2023-04-16T09:17:31.565Z,99635.72
2023-04-16T09:19:59.389Z,99636.47
2023-04-16T09:22:26.507Z,99630.78
2023-04-16T09:24:55.165Z,99633.28
2023-04-16T09:27:25.386Z,99635.38
2023-04-16T09:29:53.613Z,99635.13
2023-04-16T09:32:27.556Z,99640.66
2023-04-16T09:35:02.699Z,99634.16
2023-04-16T09:37:31.458Z,99639.03
2023-04-16T09:40:04.137Z,99632.88
2023-04-16T09:42:34.606Z,99633.50
2023-04-16T09:45:04.956Z,99628.78
2023-04-16T09:47:44.018Z,99634.16
2023-04-16T09:50:18.671Z,99628.75
2023-04-16T09:52:51.569Z,99631.91
2023-04-16T09:55:27.363Z,99636.75
2023-04-16T09:58:05.843Z,99640.28
2023-04-16T10:00:33.075Z,99638.50
2023-04-16T10:03:07.453Z,99638.88
2023-04-16T10:05:36.790Z,99636.09
2023-04-16T10:08:12.482Z,99643.16
2023-04-16T10:10:40.259Z,99644.38
2023-04-16T10:13:08.148Z,99645.78
2023-04-16T10:15:35.939Z,99634.72
2023-04-16T10:18:05.520Z,99637.97
2023-04-16T10:20:33.172Z,99641.19
2023-04-16T10:23:02.377Z,99649.22
2023-04-16T10:25:35.979Z,99646.56
2023-04-16T10:28:10.722Z,99652.78
2023-04-16T10:30:39.983Z,99650.94
2023-04-16T10:33:08.458Z,99646.72
2023-04-16T10:35:40.736Z,99651.31
2023-04-16T10:38:28.549Z,99649.13
2023-04-16T10:41:06.761Z,99648.88
2023-04-16T10:43:40.395Z,99654.16
2023-04-16T10:46:31.606Z,99654.78
2023-04-16T10:49:12.578Z,99649.16
2023-04-16T10:51:39.982Z,99648.31
2023-04-16T10:54:12.897Z,99647.91
2023-04-16T10:56:40.548Z,99649.00
2023-04-16T10:59:11.183Z,99648.78
2023-04-16T11:01:45.744Z,99655.03
2023-04-16T11:04:22.356Z,99651.31
2023-04-16T11:07:16.925Z,99646.06
2023-04-16T11:10:05.451Z,99648.50
2023-04-16T11:12:47.164Z,99648.50
2023-04-16T11:15:16.553Z,99648.66
2023-04-16T11:17:46.738Z,99644.38
2023-04-16T11:20:22.739Z,99650.53
2023-04-16T11:22:51.404Z,99639.75
2023-04-16T11:25:24.740Z,99649.69
2023-04-16T11:27:54.084Z,99644.31
2023-04-16T11:30:38.938Z,99644.16
2023-04-16T11:33:09.186Z,99644.19
2023-04-16T11:35:36.654Z,99638.16
2023-04-16T11:38:07.844Z,99641.25
2023-04-16T11:40:36.759Z,99640.91
2023-04-16T11:43:14.266Z,99646.63
2023-04-16T11:46:10.250Z,99643.34
2023-04-16T11:48:54.551Z,99635.88
2023-04-16T11:51:23.855Z,99641.75
2023-04-16T11:53:53.515Z,99642.59
2023-04-16T11:56:33.045Z,99642.81
2023-04-16T11:59:14.594Z,99644.50
2023-04-16T12:01:43.173Z,99647.25
2023-04-16T12:04:10.482Z,99646.13
2023-04-16T12:06:37.982Z,99654.47
2023-04-16T12:09:27.663Z,99654.53
2023-04-16T12:11:55.186Z,99650.19
2023-04-16T12:14:23.700Z,99655.75
2023-04-16T12:16:51.215Z,99650.63
2023-04-16T12:19:18.580Z,99651.16
2023-04-16T12:21:48.278Z,99648.25
2023-04-16T12:24:17.433Z,99650.44
2023-04-16T12:26:49.123Z,99648.25
2023-04-16T12:29:28.351Z,99654.81
2023-04-16T12:31:56.104Z,99647.69
2023-04-16T12:34:29.073Z,99643.28
2023-04-16T12:37:11.290Z,99650.84
2023-04-16T12:39:38.544Z,99643.47
2023-04-16T12:42:10.257Z,99647.34
2023-04-16T12:44:38.659Z,99652.13
2023-04-16T12:47:06.252Z,99653.19
2023-04-16T12:49:35.589Z,99649.81
2023-04-16T12:52:03.690Z,99656.75
2023-04-16T12:54:31.636Z,99653.78
2023-04-16T12:57:01.970Z,99647.34
2023-04-16T12:59:29.686Z,99643.25
2023-04-16T13:01:57.103Z,99641.94
2023-04-16T13:04:25.684Z,99647.53
2023-04-16T13:06:53.089Z,99644.72
2023-04-16T13:09:21.773Z,99646.78
2023-04-16T13:11:48.897Z,99647.63
2023-04-16T13:14:16.544Z,99652.34
2023-04-16T13:16:45.958Z,99654.38
2023-04-16T13:19:13.675Z,99654.28
2023-04-16T13:21:41.519Z,99654.81
2023-04-16T13:24:08.821Z,99646.78
2023-04-16T13:26:36.391Z,99650.50
2023-04-16T13:29:04.460Z,99646.38
2023-04-16T13:31:33.491Z,99648.75
2023-04-16T13:34:01.621Z,99640.59
2023-04-16T13:36:30.326Z,99645.50
2023-04-16T13:39:01.933Z,99644.28
2023-04-16T13:41:30.705Z,99644.88
2023-04-16T13:44:00.346Z,99644.00
2023-04-16T13:46:29.913Z,99641.63
2023-04-16T13:48:57.315Z,99644.94
2023-04-16T13:51:24.756Z,99639.50
2023-04-16T13:53:52.185Z,99647.53
2023-04-16T13:56:19.879Z,99635.63
2023-04-16T13:58:47.674Z,99639.22
2023-04-16T14:01:16.515Z,99637.03
2023-04-16T14:03:43.740Z,99634.00
2023-04-16T14:06:11.116Z,99642.03
2023-04-16T14:08:39.632Z,99638.09
2023-04-16T14:11:07.006Z,99636.56
2023-04-16T14:13:34.563Z,99627.19
2023-04-16T14:16:03.002Z,99637.75
2023-04-16T14:18:31.534Z,99628.66
2023-04-16T14:21:02.829Z,99626.56
2023-04-16T14:23:32.303Z,99630.59
2023-04-16T14:26:01.890Z,99624.88
2023-04-16T14:28:29.420Z,99617.13
2023-04-16T14:30:57.770Z,99617.13
2023-04-16T14:33:25.147Z,99620.09
2023-04-16T14:35:53.085Z,99622.56
2023-04-16T14:38:21.278Z,99619.88
2023-04-16T14:40:49.721Z,99611.41
2023-04-16T14:43:17.099Z,99615.50
2023-04-16T14:45:51.162Z,99609.50
2023-04-16T14:48:18.937Z,99612.09
2023-04-16T14:50:46.726Z,99619.00
2023-04-16T14:53:14.355Z,99616.53
2023-04-16T14:55:41.562Z,99622.63
2023-04-16T14:58:09.031Z,99629.44
2023-04-16T15:00:38.929Z,99628.53
2023-04-16T15:03:06.894Z,99620.91
2023-04-16T15:05:36.158Z,99623.75
2023-04-16T15:08:05.829Z,99628.56
2023-04-16T15:10:33.656Z,99628.44
2023-04-16T15:13:01.506Z,99625.44
2023-04-16T15:15:28.928Z,99621.72
2023-04-16T15:17:57.592Z,99629.50
2023-04-16T15:20:24.804Z,99631.09
2023-04-16T15:22:55.839Z,99628.34
2023-04-16T15:25:24.578Z,99631.50
2023-04-16T15:27:53.046Z,99628.38
2023-04-16T15:30:22.678Z,99632.94
2023-04-16T15:32:50.552Z,99634.44
2023-04-16T15:35:20.064Z,99621.97
2023-04-16T15:37:47.608Z,99636.50
2023-04-16T15:40:16.368Z,99636.81
2023-04-16T15:42:44.537Z,99636.06
2023-04-16T15:45:14.258Z,99647.50
2023-04-16T15:47:45.627Z,99642.88
2023-04-16T15:50:13.167Z,99653.84
2023-04-16T15:52:41.164Z,99647.38
2023-04-16T15:55:08.384Z,99644.56
2023-04-16T15:57:36.387Z,99641.00
2023-04-16T16:00:13.764Z,99641.22
2023-04-16T16:02:42.686Z,99645.53
2023-04-16T16:05:11.821Z,99655.66
2023-04-16T16:07:40.049Z,99657.44
2023-04-16T16:10:11.272Z,99653.88
2023-04-16T16:12:39.650Z,99662.97
2023-04-16T16:15:08.258Z,99659.34
2023-04-16T16:17:36.591Z,99664.81
2023-04-16T16:20:04.863Z,99661.31
2023-04-16T16:22:32.684Z,99664.41
2023-04-16T16:25:00.731Z,99669.75
2023-04-16T16:27:31.811Z,99667.53
2023-04-16T16:30:01.107Z,99670.28
2023-04-16T16:32:29.208Z,99669.09
2023-04-16T16:34:58.806Z,99664.72
2023-04-16T16:37:27.121Z,99669.84
2023-04-16T16:39:55.125Z,99674.16
2023-04-16T16:42:23.239Z,99667.63
2023-04-16T16:44:50.796Z,99672.00
2023-04-16T16:47:18.570Z,99669.00
2023-04-16T16:49:47.658Z,99675.66
2023-04-16T16:52:15.239Z,99675.66
2023-04-16T16:54:45.163Z,99674.69
2023-04-16T16:57:13.339Z,99682.88
2023-04-16T16:59:41.589Z,99675.47
2023-04-16T17:02:13.367Z,99680.84
2023-04-16T17:04:42.467Z,99684.19
2023-04-16T17:07:10.531Z,99680.22
2023-04-16T17:09:39.439Z,99688.47
2023-04-16T17:12:07.677Z,99689.06
2023-04-16T17:14:35.835Z,99688.59
2023-04-16T17:17:05.135Z,99691.66
2023-04-16T17:19:33.290Z,99690.47
2023-04-16T17:22:01.192Z,99693.81
2023-04-16T17:24:28.792Z,99696.88
2023-04-16T17:26:58.691Z,99699.69
2023-04-16T17:29:27.403Z,99701.13
2023-04-16T17:31:56.121Z,99695.50
2023-04-16T17:34:24.150Z,99703.47
2023-04-16T17:36:53.163Z,99704.47
2023-04-16T17:39:23.909Z,99704.28
2023-04-16T17:41:55.508Z,99712.03
2023-04-16T17:44:30.884Z,99717.66
2023-04-16T17:46:59.401Z,99713.19
2023-04-16T17:49:27.494Z,99715.06
2023-04-16T17:52:01.240Z,99722.09
2023-04-16T17:54:32.360Z,99720.56
2023-04-16T17:56:59.906Z,99730.00
2023-04-16T17:59:27.761Z,99735.47
2023-04-16T18:01:57.517Z,99737.34
2023-04-16T18:04:25.772Z,99738.19
2023-04-16T18:06:53.040Z,99737.00
2023-04-16T18:09:22.389Z,99746.22
2023-04-16T18:11:50.671Z,99745.25
2023-04-16T18:14:23.311Z,99749.41
2023-04-16T18:16:51.538Z,99753.41
2023-04-16T18:19:22.368Z,99753.09
2023-04-16T18:21:49.920Z,99758.94
2023-04-16T18:24:18.315Z,99769.19
2023-04-16T18:26:47.688Z,99767.47
2023-04-16T18:29:16.860Z,99771.06
2023-04-16T18:31:47.454Z,99773.03
2023-04-16T18:34:16.697Z,99772.53
2023-04-16T18:36:46.207Z,99778.50
2023-04-16T18:39:13.843Z,99779.66
2023-04-16T18:41:44.471Z,99786.09
2023-04-16T18:44:16.304Z,99783.97
2023-04-16T18:46:47.023Z,99798.88
2023-04-16T18:49:17.156Z,99802.19
2023-04-16T18:51:45.193Z,99797.81
2023-04-16T18:54:13.090Z,99798.63
2023-04-16T18:56:41.113Z,99802.44
2023-04-16T18:59:10.555Z,99798.13
2023-04-16T19:01:41.221Z,99787.31
2023-04-16T19:04:09.161Z,99793.84
2023-04-16T19:06:38.168Z,99798.03
2023-04-16T19:09:06.354Z,99806.78
2023-04-16T19:11:34.696Z,99791.25
2023-04-16T19:14:03.570Z,99806.75
2023-04-16T19:16:31.366Z,99799.75
2023-04-16T19:18:59.159Z,99804.50
2023-04-16T19:21:28.387Z,99803.50
2023-04-16T19:24:05.178Z,99810.09
2023-04-16T19:26:36.152Z,99806.63
2023-04-16T19:29:05.222Z,99814.94
2023-04-16T19:31:34.289Z,99812.44
2023-04-16T19:34:02.109Z,99814.06
2023-04-16T19:36:34.944Z,99820.72
2023-04-16T19:39:04.519Z,99813.44
2023-04-16T19:41:33.747Z,99808.97
2023-04-16T19:44:01.219Z,99816.28
2023-04-16T19:46:29.380Z,99815.06
2023-04-16T19:48:57.697Z,99807.63
2023-04-16T19:51:25.839Z,99810.69
2023-04-16T19:53:54.500Z,99809.41
2023-04-16T19:56:22.770Z,99814.72
2023-04-16T19:58:50.896Z,99810.84
2023-04-16T20:01:20.432Z,99819.19
2023-04-16T20:03:48.742Z,99817.47
2023-04-16T20:06:22.001Z,99817.47
2023-04-16T20:08:52.123Z,99809.22
2023-04-16T20:11:19.932Z,99815.25
2023-04-16T20:13:48.493Z,99811.94
2023-04-16T20:16:17.815Z,99814.84
2023-04-16T20:18:46.578Z,99808.91
2023-04-16T20:21:17.594Z,99822.81
2023-04-16T20:23:45.314Z,99820.38
2023-04-16T20:26:34.479Z,99822.25
2023-04-16T20:29:01.977Z,99824.84
2023-04-16T20:31:31.464Z,99829.66
2023-04-16T20:33:59.692Z,99830.66
2023-04-16T20:36:28.205Z,99838.25
2023-04-16T20:38:59.757Z,99824.78
2023-04-16T20:41:30.517Z,99830.50
2023-04-16T20:43:57.826Z,99830.81
2023-04-16T20:46:30.614Z,99829.16
2023-04-16T20:48:57.743Z,99827.59
2023-04-16T20:51:31.974Z,99829.47
2023-04-16T20:53:59.261Z,99828.91
2023-04-16T20:56:26.673Z,99828.47
2023-04-16T20:58:54.349Z,99825.13
2023-04-16T21:01:23.786Z,99821.81
2023-04-16T21:03:51.634Z,99818.75
2023-04-16T21:06:22.827Z,99823.94
2023-04-16T21:08:51.031Z,99825.56
2023-04-16T21:11:19.220Z,99827.19
2023-04-16T21:13:46.566Z,99830.56
2023-04-16T21:16:14.225Z,99829.22
2023-04-16T21:18:41.848Z,99829.63
2023-04-16T21:21:09.996Z,99829.28
2023-04-16T21:23:37.489Z,99836.19
2023-04-16T21:26:06.991Z,99825.38
2023-04-16T21:28:34.413Z,99821.72
2023-04-16T21:31:02.009Z,99821.69
2023-04-16T21:33:30.448Z,99822.13
2023-04-16T21:35:58.858Z,99824.63
2023-04-16T21:38:26.369Z,99823.03
2023-04-16T21:40:59.409Z,99825.13
2023-04-16T21:43:30.755Z,99825.22
2023-04-16T21:45:58.574Z,99821.97
2023-04-16T21:48:26.228Z,99821.41
2023-04-16T21:51:00.132Z,99827.59
2023-04-16T21:53:32.172Z,99826.69
2023-04-16T21:55:59.742Z,99828.41
2023-04-16T21:58:27.026Z,99830.56
2023-04-16T22:00:54.873Z,99829.94
2023-04-16T22:03:28.215Z,99827.72
2023-04-16T22:06:02.295Z,99834.38
2023-04-16T22:08:30.559Z,99837.19
2023-04-16T22:11:02.094Z,99830.91
2023-04-16T22:13:32.646Z,99825.56
2023-04-16T22:16:03.552Z,99827.44
2023-04-16T22:18:33.943Z,99831.34
2023-04-16T22:21:01.831Z,99824.63
2023-04-16T22:23:29.268Z,99838.09
2023-04-16T22:25:57.476Z,99833.03
2023-04-16T22:28:24.732Z,99825.91
2023-04-16T22:30:54.008Z,99824.63
2023-04-16T22:33:21.522Z,99828.06
2023-04-16T22:35:48.938Z,99817.25
2023-04-16T22:38:16.812Z,99829.63
2023-04-16T22:40:47.135Z,99824.78
2023-04-16T22:43:16.352Z,99830.72
2023-04-16T22:45:46.520Z,99834.53
2023-04-16T22:48:13.812Z,99837.31
2023-04-16T22:50:46.274Z,99832.47
2023-04-16T22:53:13.398Z,99833.25
2023-04-16T22:55:41.980Z,99834.47
2023-04-16T22:58:09.340Z,99832.13
2023-04-16T23:00:36.771Z,99835.47
2023-04-16T23:03:04.363Z,99838.59
2023-04-16T23:05:31.891Z,99829.91
2023-04-16T23:07:59.156Z,99831.41
2023-04-16T23:10:26.529Z,99827.72
2023-04-16T23:12:54.027Z,99827.44
2023-04-16T23:15:21.508Z,99824.50
2023-04-16T23:17:49.035Z,99826.16
2023-04-16T23:20:16.562Z,99824.94
2023-04-16T23:22:44.066Z,99821.63
2023-04-16T23:25:18.439Z,99826.34
2023-04-16T23:27:46.017Z,99823.00
2023-04-16T23:30:19.559Z,99821.72
2023-04-16T23:32:47.010Z,99819.34
2023-04-16T23:35:20.604Z,99820.00
2023-04-16T23:37:48.149Z,99820.06
2023-04-16T23:40:16.139Z,99831.19
2023-04-16T23:42:44.548Z,99823.06
2023-04-16T23:45:12.205Z,99829.09
2023-04-16T23:47:41.597Z,99830.13
2023-04-16T23:50:09.444Z,99830.41
2023-04-16T23:52:36.987Z,99834.41
2023-04-16T23:55:06.671Z,99827.72
2023-04-16T23:57:35.924Z,99828.69
